createdAt,value
2019-04-27T00:00:37.543Z,1004.19
2019-04-27T00:01:45.243Z,1004.16
2019-04-27T00:02:48.562Z,1004.17
2019-04-27T00:03:54.106Z,1004.19
2019-04-27T00:04:59.575Z,1004.17
2019-04-27T00:06:08.390Z,1004.18
2019-04-27T00:07:10.605Z,1004.15
2019-04-27T00:08:16.108Z,1004.14
2019-04-27T00:09:22.810Z,1004.14
2019-04-27T00:10:28.620Z,1004.10
2019-04-27T00:11:33.194Z,1004.05
2019-04-27T00:12:38.159Z,1004.07
2019-04-27T00:13:44.036Z,1004.10
2019-04-27T00:14:54.413Z,1004.05
2019-04-27T00:15:54.693Z,1004.05
2019-04-27T00:17:00.200Z,1003.99
2019-04-27T00:18:09.395Z,1003.97
2019-04-27T00:19:13.056Z,1003.95
2019-04-27T00:20:16.731Z,1003.98
2019-04-27T00:21:23.573Z,1003.98
2019-04-27T00:22:27.758Z,1003.93
2019-04-27T00:23:34.014Z,1003.91
2019-04-27T00:24:38.771Z,1003.94
2019-04-27T00:25:44.287Z,1003.92
2019-04-27T00:26:49.796Z,1003.93
2019-04-27T00:27:55.300Z,1003.90
2019-04-27T00:29:00.820Z,1003.92
2019-04-27T00:30:06.326Z,1003.95
2019-04-27T00:31:13.213Z,1003.93
2019-04-27T00:32:17.383Z,1003.90
2019-04-27T00:33:23.786Z,1003.91
2019-04-27T00:34:28.368Z,1003.87
2019-04-27T00:35:33.886Z,1003.92
2019-04-27T00:36:39.390Z,1003.90
2019-04-27T00:37:45.033Z,1003.83
2019-04-27T00:38:50.412Z,1003.90
2019-04-27T00:39:55.921Z,1003.85
2019-04-27T00:41:02.932Z,1003.82
2019-04-27T00:42:06.944Z,1003.83
2019-04-27T00:43:14.074Z,1003.81
2019-04-27T00:44:17.980Z,1003.78
2019-04-27T00:45:23.502Z,1003.79
2019-04-27T00:46:28.985Z,1003.78
2019-04-27T00:47:35.087Z,1003.78
2019-04-27T00:48:40.013Z,1003.76
2019-04-27T00:49:45.524Z,1003.72
2019-04-27T00:50:52.801Z,1003.75
2019-04-27T00:51:56.538Z,1003.74
2019-04-27T00:53:03.444Z,1003.76
2019-04-27T00:54:07.559Z,1003.72
2019-04-27T00:55:13.328Z,1003.72
2019-04-27T00:56:18.579Z,1003.74
2019-04-27T00:57:24.550Z,1003.69
2019-04-27T00:58:29.609Z,1003.72
2019-04-27T00:59:35.126Z,1003.70
2019-04-27T01:00:40.621Z,1003.68
2019-04-27T01:01:46.138Z,1003.65
2019-04-27T01:02:53.546Z,1003.67
2019-04-27T01:03:57.159Z,1003.70
2019-04-27T01:05:03.778Z,1003.67
2019-04-27T01:06:08.179Z,1003.68
2019-04-27T01:07:14.220Z,1003.64
2019-04-27T01:08:19.194Z,1003.64
2019-04-27T01:09:24.701Z,1003.64
2019-04-27T01:10:30.214Z,1003.65
2019-04-27T01:11:35.726Z,1003.65
2019-04-27T01:12:42.581Z,1003.64
2019-04-27T01:13:46.747Z,1003.63
2019-04-27T01:14:53.497Z,1003.62
2019-04-27T01:15:57.770Z,1003.59
2019-04-27T01:17:03.280Z,1003.58
2019-04-27T01:18:13.334Z,1003.53
2019-04-27T01:19:14.293Z,1003.52
2019-04-27T01:20:19.816Z,1003.52
2019-04-27T01:21:25.315Z,1003.51
2019-04-27T01:22:30.836Z,1003.50
2019-04-27T01:23:36.339Z,1003.50
2019-04-27T01:24:41.849Z,1003.45
2019-04-27T01:25:48.836Z,1003.44
2019-04-27T01:26:52.869Z,1003.48
2019-04-27T01:27:59.657Z,1003.44
2019-04-27T01:29:03.895Z,1003.46
2019-04-27T01:30:09.398Z,1003.44
2019-04-27T01:31:14.908Z,1003.44
2019-04-27T01:32:20.734Z,1003.40
2019-04-27T01:33:25.931Z,1003.41
2019-04-27T01:34:31.456Z,1003.39
2019-04-27T01:35:36.973Z,1003.40
2019-04-27T01:36:42.470Z,1003.36
2019-04-27T01:37:48.746Z,1003.35
2019-04-27T01:38:53.484Z,1003.34
2019-04-27T01:39:59.125Z,1003.28
2019-04-27T01:41:04.510Z,1003.34
2019-04-27T01:42:10.604Z,1003.35
2019-04-27T01:43:15.525Z,1003.30
2019-04-27T01:44:21.036Z,1003.29
2019-04-27T01:45:26.545Z,1003.26
2019-04-27T01:46:32.065Z,1003.30
2019-04-27T01:47:39.100Z,1003.29
2019-04-27T01:48:43.079Z,1003.27
2019-04-27T01:49:49.541Z,1003.28
2019-04-27T01:50:54.096Z,1003.26
2019-04-27T01:51:59.613Z,1003.25
2019-04-27T01:53:05.115Z,1003.25
2019-04-27T01:54:10.629Z,1003.25
2019-04-27T01:55:16.146Z,1003.21
2019-04-27T01:56:21.663Z,1003.22
2019-04-27T01:57:27.159Z,1003.19
2019-04-27T01:58:32.672Z,1003.19
2019-04-27T01:59:38.702Z,1003.18
2019-04-27T02:00:43.694Z,1003.17
2019-04-27T02:01:49.201Z,1003.13
2019-04-27T02:02:54.708Z,1003.14
2019-04-27T02:04:00.216Z,1003.14
2019-04-27T02:05:05.736Z,1003.09
2019-04-27T02:06:11.249Z,1003.12
2019-04-27T02:07:16.754Z,1003.11
2019-04-27T02:08:22.274Z,1003.07
2019-04-27T02:09:28.901Z,1003.06
2019-04-27T02:10:33.302Z,1003.04
2019-04-27T02:11:38.967Z,1003.04
2019-04-27T02:12:44.330Z,1003.07
2019-04-27T02:13:51.004Z,1003.07
2019-04-27T02:14:55.321Z,1003.10
2019-04-27T02:16:00.829Z,1003.08
2019-04-27T02:17:06.347Z,1003.06
2019-04-27T02:18:11.854Z,1003.04
2019-04-27T02:19:19.273Z,1003.06
2019-04-27T02:20:22.870Z,1003.01
2019-04-27T02:21:29.466Z,1003.07
2019-04-27T02:22:33.899Z,1003.03
2019-04-27T02:23:39.440Z,1003.04
2019-04-27T02:24:44.913Z,1003.03
2019-04-27T02:25:50.436Z,1003.02
2019-04-27T02:26:55.933Z,1003.00
2019-04-27T02:28:01.447Z,1002.93
2019-04-27T02:29:08.694Z,1002.94
2019-04-27T02:30:12.475Z,1002.89
2019-04-27T02:31:19.334Z,1002.92
2019-04-27T02:32:23.489Z,1002.89
2019-04-27T02:33:30.148Z,1002.90
2019-04-27T02:34:34.504Z,1002.92
2019-04-27T02:35:42.000Z,1002.91
2019-04-27T02:36:45.535Z,1002.93
2019-04-27T02:37:51.039Z,1002.91
2019-04-27T02:38:56.544Z,1002.94
2019-04-27T02:40:02.056Z,1002.85
2019-04-27T02:41:09.809Z,1002.87
2019-04-27T02:42:13.075Z,1002.84
2019-04-27T02:43:19.380Z,1002.76
2019-04-27T02:44:24.098Z,1002.83
2019-04-27T02:45:30.323Z,1002.77
2019-04-27T02:46:35.120Z,1002.75
2019-04-27T02:47:40.861Z,1002.76
2019-04-27T02:48:56.610Z,1002.77
2019-04-27T02:49:51.654Z,1002.72
2019-04-27T02:50:57.157Z,1002.72
2019-04-27T02:52:02.668Z,1002.74
2019-04-27T02:53:10.847Z,1002.70
2019-04-27T02:54:13.702Z,1002.73
2019-04-27T02:55:19.916Z,1002.73
2019-04-27T02:56:24.718Z,1002.68
2019-04-27T02:57:30.458Z,1002.72
2019-04-27T02:58:35.729Z,1002.71
2019-04-27T02:59:41.239Z,1002.69
2019-04-27T03:00:46.748Z,1002.68
2019-04-27T03:01:53.438Z,1002.70
2019-04-27T03:02:59.785Z,1002.72
2019-04-27T03:04:03.281Z,1002.73
2019-04-27T03:05:12.818Z,1002.74
2019-04-27T03:06:14.299Z,1002.75
2019-04-27T03:07:20.307Z,1002.72
2019-04-27T03:08:25.319Z,1002.72
2019-04-27T03:09:30.842Z,1002.74
2019-04-27T03:10:36.335Z,1002.79
2019-04-27T03:11:41.849Z,1002.73
2019-04-27T03:12:49.387Z,1002.72
2019-04-27T03:13:52.871Z,1002.75
2019-04-27T03:14:59.606Z,1002.70
2019-04-27T03:16:03.896Z,1002.69
2019-04-27T03:17:09.997Z,1002.65
2019-04-27T03:18:14.923Z,1002.71
2019-04-27T03:19:21.838Z,1002.70
2019-04-27T03:20:25.930Z,1002.66
2019-04-27T03:21:31.442Z,1002.66
2019-04-27T03:22:39.590Z,1002.68
2019-04-27T03:23:42.474Z,1002.66
2019-04-27T03:24:49.765Z,1002.68
2019-04-27T03:25:53.484Z,1002.68
2019-04-27T03:27:00.509Z,1002.66
2019-04-27T03:28:04.496Z,1002.65
2019-04-27T03:29:10.085Z,1002.58
2019-04-27T03:30:15.517Z,1002.56
2019-04-27T03:31:21.697Z,1002.58
2019-04-27T03:32:26.542Z,1002.56
2019-04-27T03:33:32.837Z,1002.51
2019-04-27T03:34:41.488Z,1002.53
2019-04-27T03:35:43.984Z,1002.52
2019-04-27T03:36:49.339Z,1002.52
2019-04-27T03:37:54.092Z,1002.50
2019-04-27T03:39:00.102Z,1002.52
2019-04-27T03:40:05.121Z,1002.49
2019-04-27T03:41:10.618Z,1002.47
2019-04-27T03:42:16.141Z,1002.47
2019-04-27T03:43:21.642Z,1002.49
2019-04-27T03:44:29.569Z,1002.46
2019-04-27T03:45:32.663Z,1002.44
2019-04-27T03:46:39.754Z,1002.43
2019-04-27T03:47:43.681Z,1002.41
2019-04-27T03:48:49.749Z,1002.44
2019-04-27T03:49:54.703Z,1002.41
2019-04-27T03:51:00.218Z,1002.36
2019-04-27T03:52:05.725Z,1002.35
2019-04-27T03:53:11.241Z,1002.36
2019-04-27T03:54:19.389Z,1002.39
2019-04-27T03:55:22.254Z,1002.34
2019-04-27T03:56:30.146Z,1002.32
2019-04-27T03:57:33.280Z,1002.31
2019-04-27T03:58:39.700Z,1002.31
2019-04-27T03:59:44.299Z,1002.30
2019-04-27T04:00:51.982Z,1002.32
2019-04-27T04:01:55.313Z,1002.29
2019-04-27T04:03:00.826Z,1002.33
2019-04-27T04:04:06.338Z,1002.34
2019-04-27T04:05:11.852Z,1002.32
2019-04-27T04:06:19.300Z,1002.27
2019-04-27T04:07:22.871Z,1002.24
2019-04-27T04:08:30.530Z,1002.24
2019-04-27T04:09:33.890Z,1002.27
2019-04-27T04:10:41.653Z,1002.25
2019-04-27T04:11:44.910Z,1002.28
2019-04-27T04:12:50.427Z,1002.26
2019-04-27T04:13:55.935Z,1002.24
2019-04-27T04:15:01.449Z,1002.25
2019-04-27T04:16:07.799Z,1002.24
2019-04-27T04:17:12.873Z,1002.23
2019-04-27T04:18:19.679Z,1002.21
2019-04-27T04:19:23.481Z,1002.19
2019-04-27T04:20:30.421Z,1002.16
2019-04-27T04:21:34.496Z,1002.16
2019-04-27T04:22:40.459Z,1002.16
2019-04-27T04:23:45.521Z,1002.15
2019-04-27T04:24:51.026Z,1002.12
2019-04-27T04:25:56.536Z,1002.12
2019-04-27T04:27:02.053Z,1002.11
2019-04-27T04:28:09.370Z,1002.14
2019-04-27T04:29:13.071Z,1002.15
2019-04-27T04:30:19.917Z,1002.12
2019-04-27T04:31:24.099Z,1002.09
2019-04-27T04:32:29.980Z,1002.12
2019-04-27T04:33:35.112Z,1002.10
2019-04-27T04:34:40.635Z,1002.09
2019-04-27T04:35:46.130Z,1002.09
2019-04-27T04:36:51.635Z,1002.10
2019-04-27T04:37:59.974Z,1002.10
2019-04-27T04:39:02.663Z,1002.09
2019-04-27T04:40:09.806Z,1002.08
2019-04-27T04:41:13.691Z,1002.10
2019-04-27T04:42:19.798Z,1002.09
2019-04-27T04:43:24.716Z,1002.09
2019-04-27T04:44:30.409Z,1002.12
2019-04-27T04:45:35.723Z,1002.11
2019-04-27T04:46:41.237Z,1002.10
2019-04-27T04:47:49.564Z,1002.06
2019-04-27T04:48:52.253Z,1002.08
2019-04-27T04:50:08.531Z,1002.05
2019-04-27T04:51:03.283Z,1002.03
2019-04-27T04:52:09.639Z,1001.99
2019-04-27T04:53:14.336Z,1002.04
2019-04-27T04:54:24.018Z,1002.00
2019-04-27T04:55:25.311Z,1002.06
2019-04-27T04:56:30.826Z,1001.99
2019-04-27T04:57:36.336Z,1002.06
2019-04-27T04:58:41.848Z,1002.07
2019-04-27T04:59:49.406Z,1002.06
2019-04-27T05:00:52.869Z,1002.05
2019-04-27T05:02:01.783Z,1002.09
2019-04-27T05:03:03.886Z,1002.09
2019-04-27T05:04:09.396Z,1002.05
2019-04-27T05:05:14.903Z,1002.04
2019-04-27T05:06:20.425Z,1002.06
2019-04-27T05:07:25.919Z,1002.05
2019-04-27T05:08:31.442Z,1002.05
2019-04-27T05:09:36.948Z,1002.05
2019-04-27T05:10:42.457Z,1002.04
2019-04-27T05:11:48.690Z,1002.03
2019-04-27T05:12:53.477Z,1002.05
2019-04-27T05:14:01.316Z,1002.02
2019-04-27T05:15:04.494Z,1002.08
2019-04-27T05:16:10.011Z,1002.06
2019-04-27T05:17:15.520Z,1002.03
2019-04-27T05:18:21.035Z,1002.06
2019-04-27T05:19:26.542Z,1002.06
2019-04-27T05:20:32.050Z,1002.03
2019-04-27T05:21:38.939Z,1002.06
2019-04-27T05:22:43.070Z,1002.04
2019-04-27T05:23:48.750Z,1001.99
2019-04-27T05:24:54.086Z,1001.99
2019-04-27T05:25:59.603Z,1002.05
2019-04-27T05:27:05.117Z,1002.01
2019-04-27T05:28:10.621Z,1002.03
2019-04-27T05:29:16.137Z,1002.10
2019-04-27T05:30:21.645Z,1002.04
2019-04-27T05:31:27.152Z,1002.06
2019-04-27T05:32:32.667Z,1002.08
2019-04-27T05:33:38.855Z,1002.11
2019-04-27T05:34:43.694Z,1002.07
2019-04-27T05:35:49.407Z,1002.14
2019-04-27T05:36:54.708Z,1002.16
2019-04-27T05:38:02.537Z,1002.19
2019-04-27T05:39:05.733Z,1002.20
2019-04-27T05:40:11.237Z,1002.16
2019-04-27T05:41:18.577Z,1002.15
2019-04-27T05:42:22.257Z,1002.17
2019-04-27T05:43:30.154Z,1002.19
2019-04-27T05:44:33.285Z,1002.20
2019-04-27T05:45:39.631Z,1002.15
2019-04-27T05:46:44.317Z,1002.17
2019-04-27T05:47:51.844Z,1002.12
2019-04-27T05:48:55.332Z,1002.13
2019-04-27T05:50:00.841Z,1002.12
2019-04-27T05:51:06.345Z,1002.13
2019-04-27T05:52:14.643Z,1002.12
2019-04-27T05:53:18.908Z,1002.06
2019-04-27T05:54:22.875Z,1002.06
2019-04-27T05:55:29.199Z,1002.05
2019-04-27T05:56:33.895Z,1002.04
2019-04-27T05:57:39.411Z,1002.06
2019-04-27T05:58:44.920Z,1002.07
2019-04-27T05:59:50.430Z,1002.09
2019-04-27T06:00:55.938Z,1002.07
2019-04-27T06:02:01.464Z,1002.04
2019-04-27T06:03:06.966Z,1002.05
2019-04-27T06:04:12.475Z,1002.05
2019-04-27T06:05:18.982Z,1002.02
2019-04-27T06:06:23.495Z,1002.04
2019-04-27T06:07:29.587Z,1002.03
2019-04-27T06:08:34.519Z,1002.01
2019-04-27T06:09:40.040Z,1002.04
2019-04-27T06:10:45.543Z,1002.03
2019-04-27T06:11:51.052Z,1002.06
2019-04-27T06:12:56.563Z,1001.97
2019-04-27T06:14:02.070Z,1002.00
2019-04-27T06:15:07.587Z,1001.98
2019-04-27T06:16:13.091Z,1002.00
2019-04-27T06:17:19.518Z,1002.01
2019-04-27T06:18:24.126Z,1002.03
2019-04-27T06:19:29.627Z,1002.03
2019-04-27T06:20:35.149Z,1001.98
2019-04-27T06:21:40.653Z,1001.94
2019-04-27T06:22:46.160Z,1001.98
2019-04-27T06:23:51.673Z,1002.00
2019-04-27T06:24:57.187Z,1001.96
2019-04-27T06:26:02.696Z,1001.95
2019-04-27T06:27:09.417Z,1001.94
2019-04-27T06:28:13.728Z,1001.99
2019-04-27T06:29:19.667Z,1001.93
2019-04-27T06:30:24.740Z,1001.92
2019-04-27T06:31:30.294Z,1001.94
2019-04-27T06:32:35.766Z,1001.93
2019-04-27T06:33:41.275Z,1001.93
2019-04-27T06:34:48.825Z,1001.91
2019-04-27T06:35:52.294Z,1001.85
2019-04-27T06:36:59.759Z,1001.86
2019-04-27T06:38:03.323Z,1001.87
2019-04-27T06:39:09.800Z,1001.91
2019-04-27T06:40:14.330Z,1001.87
2019-04-27T06:41:19.862Z,1001.88
2019-04-27T06:42:25.362Z,1001.83
2019-04-27T06:43:30.878Z,1001.85
2019-04-27T06:44:36.374Z,1001.85
2019-04-27T06:45:41.894Z,1001.80
2019-04-27T06:46:48.972Z,1001.83
2019-04-27T06:47:52.917Z,1001.78
2019-04-27T06:48:59.299Z,1001.82
2019-04-27T06:50:03.944Z,1001.75
2019-04-27T06:51:09.769Z,1001.76
2019-04-27T06:52:14.963Z,1001.70
2019-04-27T06:53:20.486Z,1001.74
2019-04-27T06:54:25.979Z,1001.66
2019-04-27T06:55:31.495Z,1001.69
2019-04-27T06:56:38.780Z,1001.68
2019-04-27T06:57:42.529Z,1001.67
2019-04-27T06:58:49.162Z,1001.66
2019-04-27T06:59:53.556Z,1001.66
2019-04-27T07:00:59.545Z,1001.68
2019-04-27T07:02:04.554Z,1001.65
2019-04-27T07:03:10.711Z,1001.62
2019-04-27T07:04:15.606Z,1001.63
2019-04-27T07:05:21.085Z,1001.64
2019-04-27T07:06:26.614Z,1001.64
2019-04-27T07:07:32.150Z,1001.65
2019-04-27T07:08:39.934Z,1001.61
2019-04-27T07:09:43.149Z,1001.66
2019-04-27T07:10:49.130Z,1001.62
2019-04-27T07:11:54.174Z,1001.63
2019-04-27T07:12:59.833Z,1001.65
2019-04-27T07:14:05.195Z,1001.68
2019-04-27T07:15:10.713Z,1001.67
2019-04-27T07:16:16.204Z,1001.68
2019-04-27T07:17:21.743Z,1001.68
2019-04-27T07:18:28.601Z,1001.67
2019-04-27T07:19:32.812Z,1001.68
2019-04-27T07:20:38.844Z,1001.66
2019-04-27T07:21:43.781Z,1001.69
2019-04-27T07:22:49.723Z,1001.70
2019-04-27T07:23:54.800Z,1001.69
2019-04-27T07:25:00.311Z,1001.69
2019-04-27T07:26:05.864Z,1001.72
2019-04-27T07:27:11.343Z,1001.68
2019-04-27T07:28:16.881Z,1001.69
2019-04-27T07:29:23.247Z,1001.69
2019-04-27T07:30:28.831Z,1001.70
2019-04-27T07:31:33.387Z,1001.66
2019-04-27T07:32:39.159Z,1001.70
2019-04-27T07:33:44.409Z,1001.69
2019-04-27T07:34:49.928Z,1001.70
2019-04-27T07:35:55.465Z,1001.70
2019-04-27T07:37:00.970Z,1001.73
2019-04-27T07:38:06.482Z,1001.71
2019-04-27T07:39:11.990Z,1001.74
2019-04-27T07:40:18.769Z,1001.77
2019-04-27T07:41:23.040Z,1001.78
2019-04-27T07:42:31.559Z,1001.76
2019-04-27T07:43:34.073Z,1001.73
2019-04-27T07:44:39.571Z,1001.73
2019-04-27T07:45:45.088Z,1001.68
2019-04-27T07:46:50.559Z,1001.71
2019-04-27T07:47:56.096Z,1001.71
2019-04-27T07:49:01.571Z,1001.71
2019-04-27T07:50:07.073Z,1001.76
2019-04-27T07:51:12.644Z,1001.75
2019-04-27T07:52:18.520Z,1001.72
2019-04-27T07:53:23.626Z,1001.74
2019-04-27T07:54:29.135Z,1001.79
2019-04-27T07:55:34.632Z,1001.76
2019-04-27T07:56:40.301Z,1001.75
2019-04-27T07:57:45.659Z,1001.71
2019-04-27T07:58:51.164Z,1001.69
2019-04-27T07:59:56.689Z,1001.65
2019-04-27T08:01:02.197Z,1001.61
2019-04-27T08:02:08.657Z,1001.63
2019-04-27T08:03:13.211Z,1001.66
2019-04-27T08:04:18.902Z,1001.61
2019-04-27T08:05:24.243Z,1001.60
2019-04-27T08:06:29.760Z,1001.59
2019-04-27T08:07:35.442Z,1001.61
2019-04-27T08:08:40.821Z,1001.67
2019-04-27T08:09:46.343Z,1001.61
2019-04-27T08:10:51.792Z,1001.62
2019-04-27T08:11:58.667Z,1001.63
2019-04-27T08:13:02.813Z,1001.64
2019-04-27T08:14:08.847Z,1001.61
2019-04-27T08:15:13.862Z,1001.65
2019-04-27T08:16:20.746Z,1001.61
2019-04-27T08:17:24.864Z,1001.59
2019-04-27T08:18:30.379Z,1001.58
2019-04-27T08:19:35.939Z,1001.60
2019-04-27T08:20:41.396Z,1001.64
2019-04-27T08:21:46.902Z,1001.63
2019-04-27T08:22:52.413Z,1001.64
2019-04-27T08:23:58.689Z,1001.61
2019-04-27T08:25:03.430Z,1001.62
2019-04-27T08:26:08.941Z,1001.63
2019-04-27T08:27:14.523Z,1001.60
2019-04-27T08:28:19.982Z,1001.65
2019-04-27T08:29:25.499Z,1001.63
2019-04-27T08:30:30.993Z,1001.68
2019-04-27T08:31:36.503Z,1001.64
2019-04-27T08:32:42.015Z,1001.62
2019-04-27T08:33:48.674Z,1001.65
2019-04-27T08:34:53.109Z,1001.65
2019-04-27T08:35:59.050Z,1001.63
2019-04-27T08:37:04.057Z,1001.60
2019-04-27T08:38:09.565Z,1001.58
2019-04-27T08:39:15.097Z,1001.60
2019-04-27T08:40:20.611Z,1001.57
2019-04-27T08:41:26.137Z,1001.57
2019-04-27T08:42:31.621Z,1001.53
2019-04-27T08:43:38.857Z,1001.53
2019-04-27T08:44:42.631Z,1001.55
2019-04-27T08:45:48.783Z,1001.49
2019-04-27T08:46:53.672Z,1001.46
2019-04-27T08:47:59.660Z,1001.48
2019-04-27T08:49:04.681Z,1001.52
2019-04-27T08:50:10.201Z,1001.51
2019-04-27T08:51:15.711Z,1001.48
2019-04-27T08:52:21.215Z,1001.41
2019-04-27T08:53:26.723Z,1001.40
2019-04-27T08:54:32.244Z,1001.41
2019-04-27T08:55:39.540Z,1001.42
2019-04-27T08:56:43.269Z,1001.39
2019-04-27T08:57:49.106Z,1001.37
2019-04-27T08:58:54.292Z,1001.37
2019-04-27T08:59:59.830Z,1001.40
2019-04-27T09:01:08.002Z,1001.37
2019-04-27T09:02:10.815Z,1001.37
2019-04-27T09:03:16.337Z,1001.34
2019-04-27T09:04:21.857Z,1001.34
2019-04-27T09:05:28.942Z,1001.36
2019-04-27T09:06:32.925Z,1001.35
2019-04-27T09:07:39.788Z,1001.33
2019-04-27T09:08:43.901Z,1001.30
2019-04-27T09:09:49.873Z,1001.30
2019-04-27T09:10:54.914Z,1001.31
2019-04-27T09:12:00.426Z,1001.33
2019-04-27T09:13:05.938Z,1001.31
2019-04-27T09:14:11.447Z,1001.30
2019-04-27T09:15:16.956Z,1001.31
2019-04-27T09:16:22.533Z,1001.25
2019-04-27T09:17:29.175Z,1001.23
2019-04-27T09:18:33.509Z,1001.23
2019-04-27T09:19:39.398Z,1001.23
2019-04-27T09:20:44.583Z,1001.22
2019-04-27T09:21:50.034Z,1001.23
2019-04-27T09:22:55.539Z,1001.21
2019-04-27T09:24:01.056Z,1001.18
2019-04-27T09:25:06.573Z,1001.21
2019-04-27T09:26:12.104Z,1001.18
2019-04-27T09:27:19.755Z,1001.20
2019-04-27T09:28:23.099Z,1001.20
2019-04-27T09:29:29.830Z,1001.22
2019-04-27T09:30:34.124Z,1001.21
2019-04-27T09:31:39.648Z,1001.15
2019-04-27T09:32:45.140Z,1001.14
2019-04-27T09:33:50.656Z,1001.15
2019-04-27T09:34:56.927Z,1001.20
2019-04-27T09:36:01.677Z,1001.17
2019-04-27T09:37:07.189Z,1001.16
2019-04-27T09:38:12.703Z,1001.18
2019-04-27T09:39:18.216Z,1001.13
2019-04-27T09:40:23.727Z,1001.14
2019-04-27T09:41:29.234Z,1001.12
2019-04-27T09:42:38.142Z,1001.13
2019-04-27T09:43:40.265Z,1001.13
2019-04-27T09:44:47.468Z,1001.12
2019-04-27T09:45:51.280Z,1001.15
2019-04-27T09:46:56.800Z,1001.17
2019-04-27T09:48:02.308Z,1001.19
2019-04-27T09:49:07.818Z,1001.15
2019-04-27T09:50:13.342Z,1001.14
2019-04-27T09:51:18.851Z,1001.15
2019-04-27T09:52:26.903Z,1001.14
2019-04-27T09:53:29.861Z,1001.13
2019-04-27T09:54:36.542Z,1001.16
2019-04-27T09:55:40.898Z,1001.08
2019-04-27T09:56:46.805Z,1001.12
2019-04-27T09:57:51.916Z,1001.12
2019-04-27T09:58:57.422Z,1001.06
2019-04-27T10:00:02.932Z,1001.10
2019-04-27T10:01:08.445Z,1001.04
2019-04-27T10:02:13.953Z,1001.02
2019-04-27T10:03:19.469Z,1001.02
2019-04-27T10:04:26.356Z,1001.00
2019-04-27T10:05:30.495Z,1000.97
2019-04-27T10:06:36.306Z,1000.96
2019-04-27T10:07:41.515Z,1000.93
2019-04-27T10:08:47.035Z,1000.93
2019-04-27T10:09:52.536Z,1000.92
2019-04-27T10:10:58.048Z,1000.89
2019-04-27T10:12:03.582Z,1000.93
2019-04-27T10:13:09.076Z,1000.90
2019-04-27T10:14:16.227Z,1000.90
2019-04-27T10:15:20.098Z,1000.86
2019-04-27T10:16:25.730Z,1000.85
2019-04-27T10:17:31.141Z,1000.81
2019-04-27T10:18:36.839Z,1000.80
2019-04-27T10:19:42.140Z,1000.81
2019-04-27T10:20:58.744Z,1000.79
2019-04-27T10:21:53.165Z,1000.83
2019-04-27T10:22:58.688Z,1000.79
2019-04-27T10:24:04.194Z,1000.80
2019-04-27T10:25:09.702Z,1000.76
2019-04-27T10:26:15.780Z,1000.76
2019-04-27T10:27:20.725Z,1000.74
2019-04-27T10:28:26.258Z,1000.74
2019-04-27T10:29:31.748Z,1000.73
2019-04-27T10:30:37.266Z,1000.67
2019-04-27T10:31:42.769Z,1000.70
2019-04-27T10:32:48.294Z,1000.71
2019-04-27T10:33:53.808Z,1000.73
2019-04-27T10:34:59.334Z,1000.75
2019-04-27T10:36:06.491Z,1000.77
2019-04-27T10:37:10.336Z,1000.73
2019-04-27T10:38:17.214Z,1000.75
2019-04-27T10:39:21.354Z,1000.76
2019-04-27T10:40:26.870Z,1000.73
2019-04-27T10:41:32.406Z,1000.77
2019-04-27T10:43:43.407Z,1001.11
2019-04-27T10:44:48.933Z,1001.25
2019-04-27T10:45:56.351Z,1001.30
2019-04-27T10:46:59.968Z,1001.41
2019-04-27T10:48:05.460Z,1001.37
2019-04-27T10:49:10.978Z,1001.35
2019-04-27T10:50:16.489Z,1001.35
2019-04-27T10:51:21.998Z,1001.38
2019-04-27T10:52:27.514Z,1001.39
2019-04-27T10:53:33.029Z,1001.34
2019-04-27T10:54:38.528Z,1001.38
2019-04-27T10:55:44.086Z,1001.40
2019-04-27T10:56:49.550Z,1001.38
2019-04-27T10:57:55.107Z,1001.39
2019-04-27T10:59:00.577Z,1001.38
2019-04-27T11:00:06.679Z,1001.41
2019-04-27T11:01:11.602Z,1001.46
2019-04-27T11:02:17.114Z,1001.44
2019-04-27T11:03:23.522Z,1001.42
2019-04-27T11:04:28.142Z,1001.42
2019-04-27T11:05:33.655Z,1001.37
2019-04-27T11:06:39.161Z,1001.40
2019-04-27T11:07:46.243Z,1001.35
2019-04-27T11:08:50.185Z,1001.36
2019-04-27T11:09:55.700Z,1001.38
2019-04-27T11:11:01.202Z,1001.35
2019-04-27T11:12:07.004Z,1001.40
2019-04-27T11:13:12.227Z,1001.37
2019-04-27T11:14:19.381Z,1001.41
2019-04-27T11:15:23.308Z,1001.46
2019-04-27T11:16:30.088Z,1001.43
2019-04-27T11:17:37.041Z,1001.46
2019-04-27T11:18:40.367Z,1001.51
2019-04-27T11:19:46.050Z,1001.48
2019-04-27T11:20:51.052Z,1001.54
2019-04-27T11:21:57.227Z,1001.60
2019-04-27T11:23:09.431Z,1001.56
2019-04-27T11:24:08.303Z,1001.58
2019-04-27T11:25:13.063Z,1001.60
2019-04-27T11:26:18.595Z,1001.63
2019-04-27T11:27:23.958Z,1001.61
2019-04-27T11:28:29.570Z,1001.64
2019-04-27T11:29:36.044Z,1001.62
2019-04-27T11:30:41.090Z,1001.61
2019-04-27T11:31:46.553Z,1001.63
2019-04-27T11:32:54.359Z,1001.66
2019-04-27T11:33:56.948Z,1001.62
2019-04-27T11:35:02.522Z,1001.67
2019-04-27T11:36:08.691Z,1001.65
2019-04-27T11:37:14.059Z,1001.70
2019-04-27T11:38:19.034Z,1001.67
2019-04-27T11:39:26.025Z,1001.63
2019-04-27T11:40:30.076Z,1001.66
2019-04-27T11:41:35.715Z,1001.71
2019-04-27T11:42:41.380Z,1001.72
2019-04-27T11:43:49.997Z,1001.67
2019-04-27T11:44:55.416Z,1001.66
2019-04-27T11:46:00.653Z,1001.68
2019-04-27T11:47:03.212Z,1001.65
2019-04-27T11:48:08.639Z,1001.63
2019-04-27T11:49:15.614Z,1001.65
2019-04-27T11:50:20.954Z,1001.63
2019-04-27T11:51:26.629Z,1001.59
2019-04-27T11:52:30.964Z,1001.58
2019-04-27T11:53:36.211Z,1001.67
2019-04-27T11:54:41.783Z,1001.61
2019-04-27T11:55:47.524Z,1001.63
2019-04-27T11:56:52.935Z,1001.68
2019-04-27T11:57:58.282Z,1001.65
2019-04-27T11:59:03.797Z,1001.64
2019-04-27T12:00:09.359Z,1001.72
2019-04-27T12:01:15.960Z,1001.64
2019-04-27T12:02:20.418Z,1001.67
2019-04-27T12:03:25.800Z,1001.67
2019-04-27T12:04:31.248Z,1001.70
2019-04-27T12:05:36.888Z,1001.75
2019-04-27T12:06:42.555Z,1001.68
2019-04-27T12:07:48.007Z,1001.71
2019-04-27T12:08:53.591Z,1001.73
2019-04-27T12:09:58.964Z,1001.71
2019-04-27T12:11:05.847Z,1001.78
2019-04-27T12:12:18.145Z,1001.74
2019-04-27T12:19:57.103Z,1001.86
2019-04-27T12:22:34.837Z,1001.99
2019-04-27T12:23:41.405Z,1002.02
2019-04-27T12:24:45.860Z,1002.05
2019-04-27T12:25:51.246Z,1002.08
2019-04-27T12:26:57.477Z,1002.12
2019-04-27T12:28:02.247Z,1002.10
2019-04-27T12:29:07.808Z,1002.13
2019-04-27T12:30:13.400Z,1002.10
2019-04-27T12:31:18.781Z,1002.11
2019-04-27T12:32:25.730Z,1002.10
2019-04-27T12:33:29.838Z,1002.18
2019-04-27T12:34:36.122Z,1002.15
2019-04-27T12:35:40.838Z,1002.08
2019-04-27T12:36:46.346Z,1002.10
2019-04-27T12:37:51.898Z,1002.05
2019-04-27T12:38:57.330Z,1002.02
2019-04-27T12:40:02.969Z,1002.05
2019-04-27T12:41:08.376Z,1002.03
2019-04-27T12:42:15.963Z,1001.99
2019-04-27T12:43:19.556Z,1001.96
2019-04-27T12:44:26.088Z,1001.89
2019-04-27T12:45:30.450Z,1001.88
2019-04-27T12:46:35.993Z,1001.95
2019-04-27T12:47:41.522Z,1001.97
2019-04-27T12:48:47.267Z,1001.98
2019-04-27T12:49:52.600Z,1002.03
2019-04-27T12:50:58.021Z,1002.00
2019-04-27T12:52:03.592Z,1001.95
2019-04-27T12:53:09.164Z,1001.89
2019-04-27T12:54:16.089Z,1001.80
2019-04-27T12:55:20.176Z,1001.80
2019-04-27T12:56:25.617Z,1001.72
2019-04-27T12:57:31.238Z,1001.63
2019-04-27T12:58:36.771Z,1001.64
2019-04-27T12:59:44.156Z,1001.66
2019-04-27T13:00:47.584Z,1001.57
2019-04-27T13:01:53.371Z,1001.55
2019-04-27T13:02:58.783Z,1001.56
2019-04-27T13:04:04.085Z,1001.53
2019-04-27T13:05:09.701Z,1001.51
2019-04-27T13:06:15.091Z,1001.54
2019-04-27T13:07:20.614Z,1001.55
2019-04-27T13:08:26.177Z,1001.58
2019-04-27T13:09:31.622Z,1001.53
2019-04-27T13:10:37.142Z,1001.46
2019-04-27T13:11:42.641Z,1001.44
2019-04-27T13:12:48.161Z,1001.41
2019-04-27T13:13:53.665Z,1001.45
2019-04-27T13:14:59.178Z,1001.42
2019-04-27T13:16:06.409Z,1001.42
2019-04-27T13:17:10.206Z,1001.40
2019-04-27T13:18:16.688Z,1001.42
2019-04-27T13:19:21.224Z,1001.42
2019-04-27T13:20:26.734Z,1001.45
2019-04-27T13:21:32.251Z,1001.42